Time;durP1;ratioP1;P1;durP2;ratioP2;P2;SDS_P1;SDS_P2;PMS_P1;PMS_P2;Temp;Humidity;BMP_temperature;BMP_pressure;BME280_temperature;BME280_humidity;BME280_pressure;Samples;Min_cycle;Max_cycle;Signal;HPM_P1;HPM_P2
2022/10/05 00:01:48;;;;;;;9.07;6.97;;;9.90;99.90;;;;;;10386058;28;20220;-79
2022/10/05 00:07:08;;;;;;;10.00;7.73;;;9.80;99.90;;;;;;10383883;28;20247;-79
2022/10/05 00:12:14;;;;;;;10.73;7.03;;;9.80;99.90;;;;;;10389848;28;20221;-79
2022/10/05 00:17:20;;;;;;;12.77;7.70;;;9.70;99.90;;;;;;10403681;28;20228;-79
2022/10/05 00:22:28;;;;;;;11.37;7.20;;;9.80;99.90;;;;;;10384734;28;20235;-79
2022/10/05 00:27:38;;;;;;;9.20;6.80;;;9.80;99.90;;;;;;10392937;28;20303;-77
2022/10/05 00:32:38;;;;;;;9.90;7.20;;;9.70;99.90;;;;;;10385636;28;20247;-78
2022/10/05 00:37:40;;;;;;;14.73;7.13;;;9.70;99.90;;;;;;10385834;28;20273;-75
2022/10/05 00:42:58;;;;;;;8.57;6.90;;;9.70;99.90;;;;;;10388037;28;20776;-75
2022/10/05 00:48:14;;;;;;;9.30;6.80;;;9.60;99.90;;;;;;10389564;28;20317;-77
2022/10/05 00:53:23;;;;;;;10.30;7.90;;;9.60;99.90;;;;;;10389292;28;20235;-78
2022/10/05 00:58:35;;;;;;;10.13;8.77;;;9.50;99.90;;;;;;10385638;28;20692;-77
2022/10/05 01:03:49;;;;;;;11.13;8.13;;;9.60;99.90;;;;;;10385823;28;20227;-75
2022/10/05 01:13:40;;;;;;;11.27;8.97;;;9.60;99.90;;;;;;10483816;28;21103;-76
2022/10/05 01:18:49;;;;;;;12.83;9.00;;;9.70;99.90;;;;;;10482212;28;20755;-75
2022/10/05 01:24:05;;;;;;;10.57;8.37;;;9.80;99.90;;;;;;10483126;28;20226;-76
2022/10/05 01:29:21;;;;;;;11.40;7.73;;;9.80;99.90;;;;;;10482669;28;20230;-76
2022/10/05 01:34:28;;;;;;;12.40;8.50;;;9.70;99.90;;;;;;10472877;28;20210;-77
2022/10/05 01:39:54;;;;;;;9.80;7.10;;;9.70;99.90;;;;;;10477083;28;20241;-76
2022/10/05 01:45:03;;;;;;;11.50;7.80;;;9.60;99.90;;;;;;10481875;28;20241;-75
2022/10/05 01:50:11;;;;;;;11.90;8.03;;;9.60;99.90;;;;;;10481217;28;20283;-75
2022/10/05 01:55:36;;;;;;;10.30;8.47;;;9.50;99.90;;;;;;10474375;28;20229;-74
2022/10/05 02:00:48;;;;;;;10.97;7.73;;;9.40;99.90;;;;;;10480540;28;20749;-75
2022/10/05 02:05:59;;;;;;;8.90;7.67;;;9.40;99.90;;;;;;10481373;28;20226;-75
2022/10/05 02:11:08;;;;;;;12.57;8.90;;;9.30;99.90;;;;;;10480281;28;20287;-73
2022/10/05 02:16:28;;;;;;;12.57;9.27;;;9.40;99.90;;;;;;10481232;28;20597;-74
2022/10/05 02:21:32;;;;;;;18.53;10.57;;;9.50;99.90;;;;;;10464907;28;20249;-74
2022/10/05 02:26:37;;;;;;;12.57;9.50;;;9.50;99.90;;;;;;10452598;28;20567;-75
2022/10/05 02:31:49;;;;;;;11.60;9.23;;;9.40;99.90;;;;;;10439554;28;20659;-73
2022/10/05 02:36:58;;;;;;;13.03;9.67;;;9.40;99.90;;;;;;10432489;28;20231;-74
2022/10/05 02:42:29;;;;;;;9.97;8.70;;;9.40;99.90;;;;;;10421087;28;20575;-74
2022/10/05 02:48:05;;;;;;;13.77;9.33;;;9.40;99.90;;;;;;10395814;28;20270;-74
2022/10/05 02:53:24;;;;;;;14.43;10.10;;;9.30;99.90;;;;;;10410472;28;20231;-75
2022/10/05 02:58:41;;;;;;;16.27;10.50;;;9.30;99.90;;;;;;10433235;28;20222;-75
2022/10/05 03:04:03;;;;;;;16.07;11.10;;;9.30;99.90;;;;;;10452418;28;20273;-75
2022/10/05 03:09:16;;;;;;;12.47;10.73;;;9.30;99.90;;;;;;10452228;28;20726;-75
2022/10/05 03:14:25;;;;;;;18.27;12.17;;;9.30;99.90;;;;;;10443544;28;20219;-74
2022/10/05 03:19:59;;;;;;;15.33;11.33;;;9.30;99.90;;;;;;10467456;28;20231;-75
2022/10/05 03:25:21;;;;;;;14.20;11.43;;;9.30;99.90;;;;;;10451673;28;20231;-74
2022/10/05 03:30:25;;;;;;;16.47;12.23;;;9.20;99.90;;;;;;10442397;28;20234;-75
2022/10/05 03:35:56;;;;;;;17.90;10.97;;;9.30;99.90;;;;;;10409052;28;20227;-76
2022/10/05 03:41:15;;;;;;;14.97;11.57;;;9.30;99.90;;;;;;10404068;28;20695;-77
2022/10/05 03:46:53;;;;;;;16.93;10.93;;;9.30;99.90;;;;;;10443262;28;20306;-76
2022/10/05 03:52:11;;;;;;;18.97;12.30;;;9.30;99.90;;;;;;10449934;28;20324;-77
2022/10/05 03:57:22;;;;;;;19.13;12.73;;;9.30;99.90;;;;;;10440015;28;20234;-75
2022/10/05 04:02:48;;;;;;;18.53;13.13;;;9.30;99.90;;;;;;10449159;28;20222;-75
2022/10/05 04:07:55;;;;;;;18.90;13.10;;;9.20;99.90;;;;;;10449284;28;20225;-76
2022/10/05 04:13:35;;;;;;;17.37;13.70;;;9.20;99.90;;;;;;10447370;28;20243;-75
2022/10/05 04:18:40;;;;;;;18.50;12.77;;;9.20;99.90;;;;;;10444424;28;20227;-68
2022/10/05 04:24:12;;;;;;;17.43;13.47;;;9.20;99.90;;;;;;10447818;28;20298;-69
2022/10/05 04:29:39;;;;;;;19.50;13.57;;;9.30;99.90;;;;;;10434505;28;20322;-69
2022/10/05 04:35:18;;;;;;;15.07;13.47;;;9.20;99.90;;;;;;10448237;28;20359;-69
2022/10/05 04:40:40;;;;;;;18.67;13.77;;;9.20;99.90;;;;;;10441106;28;20226;-69
2022/10/05 04:46:29;;;;;;;19.47;14.23;;;9.20;99.90;;;;;;10446245;28;20283;-74
2022/10/05 04:51:56;;;;;;;20.47;13.30;;;9.10;99.90;;;;;;10410737;28;20241;-75
2022/10/05 04:57:10;;;;;;;22.23;15.63;;;9.10;99.90;;;;;;10446167;28;20609;-74
2022/10/05 05:02:28;;;;;;;27.13;16.73;;;9.20;99.90;;;;;;10438119;28;20227;-74
2022/10/05 05:08:03;;;;;;;42.67;16.00;;;9.30;99.90;;;;;;10447307;28;20302;-73
2022/10/05 05:13:49;;;;;;;36.10;16.83;;;9.40;99.90;;;;;;10443738;28;20274;-75
2022/10/05 05:18:55;;;;;;;27.87;16.50;;;9.50;99.90;;;;;;10434905;28;20316;-74
2022/10/05 05:24:39;;;;;;;18.70;16.37;;;9.60;99.90;;;;;;10443476;28;20229;-74
2022/10/05 05:30:06;;;;;;;60.67;18.47;;;9.70;99.90;;;;;;10439568;28;20344;-74
2022/10/05 05:35:13;;;;;;;45.30;16.50;;;9.70;99.90;;;;;;10443318;28;20219;-74
2022/10/05 05:40:29;;;;;;;29.13;16.03;;;9.80;99.90;;;;;;10429067;28;20290;-74
2022/10/05 05:45:44;;;;;;;34.80;18.10;;;9.90;99.90;;;;;;10446632;28;20305;-74
2022/10/05 05:51:04;;;;;;;31.90;17.97;;;9.90;99.90;;;;;;10446595;28;20237;-75
2022/10/05 05:56:11;;;;;;;29.67;18.17;;;10.00;99.90;;;;;;10448381;28;20304;-74
2022/10/05 06:01:31;;;;;;;26.50;17.70;;;10.10;99.90;;;;;;10447118;28;20229;-74
2022/10/05 06:06:36;;;;;;;21.17;16.30;;;10.30;99.90;;;;;;10451993;28;20220;-74
2022/10/05 06:11:41;;;;;;;24.90;16.33;;;10.40;99.90;;;;;;10451438;28;20238;-74
2022/10/05 06:16:51;;;;;;;27.20;16.27;;;10.50;99.90;;;;;;10452452;28;20834;-74
2022/10/05 06:21:57;;;;;;;19.77;15.90;;;10.50;99.90;;;;;;10453448;28;20224;-75
2022/10/05 06:27:08;;;;;;;19.53;13.63;;;10.60;99.90;;;;;;10452948;28;20247;-74
2022/10/05 06:32:35;;;;;;;18.13;13.27;;;10.80;99.90;;;;;;10452166;28;20236;-74
2022/10/05 06:38:01;;;;;;;17.43;13.30;;;10.80;99.90;;;;;;10447986;28;20262;-74
2022/10/05 06:43:22;;;;;;;16.57;12.90;;;10.80;99.90;;;;;;10452575;28;20232;-74
2022/10/05 06:49:02;;;;;;;23.27;12.87;;;10.90;99.90;;;;;;10444048;28;20632;-74
2022/10/05 06:54:21;;;;;;;22.77;14.00;;;11.20;99.90;;;;;;10427134;28;20215;-75
2022/10/05 06:59:45;;;;;;;18.40;13.80;;;11.40;99.90;;;;;;10451436;28;20302;-74
2022/10/05 07:05:03;;;;;;;16.60;13.37;;;11.60;99.90;;;;;;10449501;28;20710;-74
2022/10/05 07:10:23;;;;;;;17.87;14.60;;;12.00;99.90;;;;;;10449339;28;20227;-75
2022/10/05 07:15:46;;;;;;;17.13;14.30;;;12.20;99.90;;;;;;10444325;28;20225;-74
2022/10/05 07:21:09;;;;;;;14.97;13.30;;;12.80;99.90;;;;;;10450671;28;20223;-75
2022/10/05 07:26:48;;;;;;;15.63;12.97;;;13.20;99.90;;;;;;10441914;28;20281;-75
2022/10/05 07:32:16;;;;;;;12.17;10.50;;;14.00;99.90;;;;;;10399692;28;20252;-75
2022/10/05 07:43:07;;;;;;;12.20;8.57;;;19.10;99.90;;;;;;10450199;28;20227;-75
2022/10/05 07:48:22;;;;;;;8.93;7.40;;;21.50;99.90;;;;;;10449446;28;20242;-75
2022/10/05 07:53:31;;;;;;;9.57;7.53;;;23.70;99.90;;;;;;10435440;28;20238;-75
2022/10/05 07:58:42;;;;;;;9.37;7.80;;;25.40;97.70;;;;;;10449754;28;20235;-75
2022/10/05 08:03:59;;;;;;;8.77;7.77;;;25.00;95.20;;;;;;10450020;28;20216;-75
2022/10/05 08:09:22;;;;;;;14.40;8.13;;;24.40;95.50;;;;;;10449083;28;20255;-75
2022/10/05 08:14:56;;;;;;;18.47;9.23;;;23.70;97.20;;;;;;10441964;28;20216;-74
2022/10/05 08:20:30;;;;;;;9.47;8.03;;;23.70;96.00;;;;;;10402880;28;20212;-74
2022/10/05 08:26:04;;;;;;;11.47;8.30;;;23.40;96.30;;;;;;10442876;28;20228;-74
2022/10/05 08:31:22;;;;;;;8.20;7.13;;;23.00;97.70;;;;;;10455869;28;20736;-76
2022/10/05 08:36:58;;;;;;;8.13;7.00;;;25.30;94.10;;;;;;10432713;28;20762;-75
2022/10/05 08:42:04;;;;;;;9.70;8.40;;;26.30;90.80;;;;;;10416480;28;20261;-75
2022/10/05 08:47:30;;;;;;;10.67;9.40;;;27.30;83.40;;;;;;10407471;28;20743;-74
2022/10/05 08:52:55;;;;;;;12.40;9.30;;;27.70;80.30;;;;;;10407892;28;20243;-75
2022/10/05 08:58:11;;;;;;;10.77;9.77;;;29.20;73.10;;;;;;10406541;28;20366;-75
2022/10/05 09:03:41;;;;;;;9.57;8.67;;;31.20;61.80;;;;;;10423821;28;20238;-75
2022/10/05 09:09:07;;;;;;;11.17;7.80;;;32.00;57.40;;;;;;10445676;28;20801;-74
2022/10/05 09:14:29;;;;;;;12.63;7.33;;;32.60;54.50;;;;;;10446882;28;20242;-74
2022/10/05 09:19:39;;;;;;;10.73;8.53;;;34.00;51.50;;;;;;10449403;28;20295;-74
2022/10/05 09:25:18;;;;;;;8.60;7.70;;;34.40;48.50;;;;;;10445934;28;20239;-75
2022/10/05 09:30:31;;;;;;;9.20;7.60;;;34.40;47.20;;;;;;10445974;28;20634;-75
2022/10/05 09:35:59;;;;;;;9.67;6.97;;;34.60;46.40;;;;;;10454835;28;20310;-75
2022/10/05 09:41:15;;;;;;;11.07;7.23;;;34.20;47.70;;;;;;10455863;28;20258;-75
2022/10/05 09:46:47;;;;;;;10.20;9.20;;;34.90;46.00;;;;;;10454705;28;20233;-75
2022/10/05 09:52:15;;;;;;;11.33;9.60;;;35.00;45.80;;;;;;10454776;28;20227;-75
2022/10/05 09:57:30;;;;;;;13.23;10.50;;;34.90;45.00;;;;;;10455429;28;20219;-75
2022/10/05 10:02:51;;;;;;;11.27;8.07;;;35.10;44.90;;;;;;10454080;28;20686;-77
2022/10/05 10:08:21;;;;;;;10.40;8.20;;;35.60;44.20;;;;;;10454026;28;20223;-75
2022/10/05 10:14:04;;;;;;;13.37;10.03;;;36.20;43.00;;;;;;10447145;28;20721;-75
2022/10/05 10:19:26;;;;;;;11.47;9.10;;;35.80;43.50;;;;;;10446213;28;20658;-75
2022/10/05 10:24:52;;;;;;;11.30;10.20;;;36.70;42.30;;;;;;10446678;28;20215;-75
2022/10/05 10:29:55;;;;;;;13.83;12.30;;;37.00;42.00;;;;;;10453170;28;20237;-74
2022/10/05 10:35:03;;;;;;;11.87;10.20;;;36.60;41.60;;;;;;10453241;28;20268;-75
2022/10/05 10:40:22;;;;;;;10.77;9.33;;;36.90;42.20;;;;;;10451929;28;20574;-75
2022/10/05 10:45:59;;;;;;;11.70;10.47;;;36.10;44.10;;;;;;10446108;28;20274;-75
2022/10/05 10:51:21;;;;;;;12.13;8.50;;;37.10;41.50;;;;;;10452534;28;20877;-75
2022/10/05 10:56:40;;;;;;;8.73;5.77;;;37.30;41.20;;;;;;10436519;28;20235;-75
2022/10/05 11:01:44;;;;;;;4.73;4.10;;;37.20;41.30;;;;;;10451808;28;20222;-75
2022/10/05 11:06:44;;;;;;;5.13;4.53;;;36.50;40.90;;;;;;10451964;28;20220;-74
2022/10/05 11:11:45;;;;;;;8.40;4.37;;;32.10;47.30;;;;;;10450278;28;20243;-74
2022/10/05 11:17:23;;;;;;;6.57;4.17;;;29.30;52.90;;;;;;10451108;28;20226;-74
2022/10/05 11:22:43;;;;;;;6.17;3.67;;;27.30;58.30;;;;;;10445486;28;20223;-74
2022/10/05 11:28:19;;;;;;;7.03;4.10;;;26.30;61.90;;;;;;10451400;28;20219;-73
2022/10/05 11:33:42;;;;;;;6.40;3.67;;;25.10;66.00;;;;;;10429784;28;20251;-73
2022/10/05 11:39:16;;;;;;;10.13;4.40;;;24.20;71.20;;;;;;10449406;28;20307;-73
2022/10/05 11:44:32;;;;;;;6.83;4.30;;;23.60;74.80;;;;;;10443449;28;20211;-74
2022/10/05 11:49:54;;;;;;;5.13;4.37;;;23.20;77.50;;;;;;10449744;28;20268;-74
2022/10/05 11:54:58;;;;;;;12.77;4.73;;;22.80;79.90;;;;;;10448352;28;20702;-74
2022/10/05 12:00:20;;;;;;;9.33;4.50;;;22.40;83.90;;;;;;10450050;28;20223;-74
2022/10/05 12:05:37;;;;;;;6.40;4.33;;;22.10;86.40;;;;;;10441847;28;20326;-74
2022/10/05 12:11:05;;;;;;;6.57;4.10;;;21.80;90.00;;;;;;10447300;28;20235;-73
2022/10/05 12:16:25;;;;;;;4.60;4.10;;;21.60;91.80;;;;;;10446952;28;20222;-74
2022/10/05 12:21:48;;;;;;;11.80;4.37;;;21.50;93.40;;;;;;10441057;28;20248;-74
2022/10/05 12:26:49;;;;;;;5.67;4.80;;;21.30;95.90;;;;;;10408942;28;20249;-74
2022/10/05 12:31:59;;;;;;;5.47;4.60;;;21.20;98.10;;;;;;10447530;28;20720;-75
2022/10/05 12:36:59;;;;;;;5.33;4.50;;;21.10;99.90;;;;;;10447400;28;20279;-74
2022/10/05 12:42:12;;;;;;;5.50;4.67;;;21.10;99.90;;;;;;10448500;28;20299;-75
2022/10/05 12:47:50;;;;;;;4.93;4.00;;;21.20;99.90;;;;;;10447709;28;20219;-75
2022/10/05 12:53:22;;;;;;;5.87;4.03;;;21.20;99.90;;;;;;10444891;28;20242;-75
2022/10/05 12:58:25;;;;;;;8.47;5.07;;;21.30;99.90;;;;;;10448049;28;20229;-74
2022/10/05 13:03:51;;;;;;;6.57;3.87;;;21.20;99.90;;;;;;10446341;28;20714;-74
2022/10/05 13:09:07;;;;;;;11.50;4.33;;;21.20;99.90;;;;;;10461635;28;20222;-75
2022/10/05 13:14:32;;;;;;;5.27;4.00;;;21.20;99.90;;;;;;10447440;28;20676;-74
2022/10/05 13:19:43;;;;;;;4.73;4.17;;;21.20;99.90;;;;;;10442156;28;20314;-74
2022/10/05 13:25:18;;;;;;;5.73;4.27;;;21.20;99.90;;;;;;10446646;28;20221;-75
2022/10/05 13:30:20;;;;;;;7.57;4.30;;;21.10;99.90;;;;;;10448046;28;20231;-75
2022/10/05 13:35:36;;;;;;;5.73;3.73;;;21.00;99.90;;;;;;10446461;28;20190;-74
2022/10/05 13:40:49;;;;;;;5.80;3.97;;;21.00;99.90;;;;;;10441260;28;20241;-74
2022/10/05 13:46:06;;;;;;;6.20;3.60;;;21.00;99.90;;;;;;10444883;28;20219;-76
2022/10/05 13:51:17;;;;;;;4.53;3.80;;;21.00;99.90;;;;;;10447109;28;20230;-74
2022/10/05 13:56:25;;;;;;;5.97;3.57;;;21.00;99.90;;;;;;10439245;28;20709;-75
2022/10/05 14:01:36;;;;;;;4.10;3.37;;;21.00;99.90;;;;;;10445662;28;20226;-74
2022/10/05 14:06:37;;;;;;;7.23;3.63;;;21.00;99.90;;;;;;10446256;28;20219;-74
2022/10/05 14:11:48;;;;;;;3.30;3.00;;;21.00;99.90;;;;;;10445856;28;20231;-75
2022/10/05 14:16:55;;;;;;;3.90;3.50;;;21.00;99.90;;;;;;10445364;28;20222;-75
2022/10/05 14:22:09;;;;;;;6.17;3.23;;;21.10;99.90;;;;;;10448912;28;20276;-75
2022/10/05 14:27:29;;;;;;;5.40;3.10;;;21.00;99.90;;;;;;10453810;28;20701;-74
2022/10/05 14:32:42;;;;;;;3.53;2.87;;;21.00;99.90;;;;;;10446981;28;20242;-74
2022/10/05 14:37:49;;;;;;;5.37;2.70;;;21.00;99.90;;;;;;10453142;28;20231;-74
2022/10/05 14:42:50;;;;;;;6.80;3.10;;;20.90;99.90;;;;;;10452256;28;20219;-74
2022/10/05 14:48:00;;;;;;;5.03;3.30;;;20.90;99.90;;;;;;10451431;28;20670;-75
2022/10/05 14:53:13;;;;;;;3.20;2.83;;;20.80;99.90;;;;;;10451087;28;20322;-74
2022/10/05 14:58:33;;;;;;;8.17;3.30;;;20.80;99.90;;;;;;10444407;28;20218;-75
2022/10/05 15:03:52;;;;;;;4.33;2.70;;;20.80;99.90;;;;;;10444842;28;20230;-75
2022/10/05 15:09:23;;;;;;;3.97;2.80;;;20.90;99.90;;;;;;10451183;28;20230;-74
2022/10/05 15:14:28;;;;;;;3.53;2.90;;;20.80;99.90;;;;;;10433885;28;20219;-74
2022/10/05 15:20:06;;;;;;;9.17;3.87;;;20.80;99.90;;;;;;10450062;28;20222;-73
2022/10/05 15:25:35;;;;;;;7.67;3.20;;;20.70;99.90;;;;;;10450876;28;20673;-74
2022/10/05 15:31:00;;;;;;;3.13;2.60;;;20.60;99.90;;;;;;10444510;28;20237;-75
2022/10/05 15:36:25;;;;;;;3.43;2.40;;;20.60;99.90;;;;;;10450230;28;20231;-74
2022/10/05 15:41:39;;;;;;;5.27;2.80;;;20.60;99.90;;;;;;10450518;28;20223;-74
2022/10/05 15:46:55;;;;;;;3.60;2.67;;;20.60;99.90;;;;;;10450660;28;20711;-74
2022/10/05 15:52:02;;;;;;;5.60;2.90;;;20.60;99.90;;;;;;10450230;28;20269;-74
2022/10/05 15:57:15;;;;;;;3.93;2.67;;;20.60;99.90;;;;;;10450417;28;20227;-75
2022/10/05 16:02:22;;;;;;;5.67;2.53;;;20.60;99.90;;;;;;10442386;28;20258;-75
2022/10/05 16:13:13;;;;;;;6.97;3.63;;;20.50;99.90;;;;;;10449113;28;20239;-75
2022/10/05 16:18:38;;;;;;;3.37;2.63;;;20.40;99.90;;;;;;10442818;28;20222;-74
2022/10/05 16:24:09;;;;;;;3.90;2.50;;;20.20;99.90;;;;;;10430111;28;20246;-74
2022/10/05 16:29:26;;;;;;;4.77;2.60;;;20.10;99.90;;;;;;10430145;28;20230;-74
2022/10/05 16:34:53;;;;;;;4.23;2.90;;;19.90;99.90;;;;;;10401422;28;20725;-74
2022/10/05 16:39:58;;;;;;;6.80;2.60;;;19.70;99.90;;;;;;10406001;28;20231;-75
2022/10/05 16:45:10;;;;;;;5.57;3.03;;;19.60;99.90;;;;;;10422473;28;20220;-74
2022/10/05 16:50:20;;;;;;;5.33;2.93;;;19.50;99.90;;;;;;10406296;28;20243;-74
2022/10/05 16:55:34;;;;;;;4.50;3.10;;;19.40;99.90;;;;;;10417034;28;20200;-74
2022/10/05 17:00:56;;;;;;;5.50;3.10;;;19.20;99.90;;;;;;10423972;28;20357;-75
2022/10/05 17:06:11;;;;;;;6.20;3.40;;;19.10;99.90;;;;;;10445805;28;20212;-74
2022/10/05 17:11:37;;;;;;;5.43;3.20;;;18.90;99.90;;;;;;10429165;28;20235;-74
2022/10/05 17:16:49;;;;;;;4.13;3.03;;;18.70;99.90;;;;;;10444755;28;20347;-74
2022/10/05 17:22:01;;;;;;;5.63;4.00;;;18.50;99.90;;;;;;10440760;28;20670;-75
2022/10/05 17:27:46;;;;;;;8.00;4.13;;;18.30;99.90;;;;;;10446750;28;20216;-73
2022/10/05 17:33:16;;;;;;;11.80;5.90;;;18.30;99.90;;;;;;10455869;28;20233;-74
2022/10/05 17:38:22;;;;;;;9.23;4.60;;;18.20;99.90;;;;;;10440199;28;20226;-74
2022/10/05 17:43:26;;;;;;;11.13;5.80;;;18.10;99.90;;;;;;10445774;28;20232;-75
2022/10/05 17:48:48;;;;;;;10.00;4.60;;;18.10;99.90;;;;;;10445894;28;20606;-75
2022/10/05 17:59:08;;;;;;;7.07;4.13;;;17.80;99.90;;;;;;10454942;28;20221;-72
2022/10/05 18:04:18;;;;;;;7.87;4.67;;;17.60;99.90;;;;;;10453003;28;20220;-74
2022/10/05 18:09:22;;;;;;;9.00;4.60;;;17.30;99.90;;;;;;10455178;28;20226;-76
2022/10/05 18:14:23;;;;;;;8.73;4.70;;;17.20;99.90;;;;;;10453790;28;20216;-74
2022/10/05 18:19:24;;;;;;;6.23;4.07;;;17.20;99.90;;;;;;10451478;28;20578;-74
2022/10/05 18:24:51;;;;;;;10.97;3.90;;;17.20;99.90;;;;;;10454452;28;20225;-75
2022/10/05 18:30:01;;;;;;;5.80;3.47;;;17.10;99.90;;;;;;10453418;28;20271;-75
2022/10/05 18:35:36;;;;;;;3.80;3.17;;;17.10;99.90;;;;;;10453422;28;20806;-74
2022/10/05 18:40:43;;;;;;;10.43;3.03;;;17.10;99.90;;;;;;10448762;28;20228;-73
2022/10/05 18:46:20;;;;;;;3.67;3.33;;;17.00;99.90;;;;;;10453565;28;20228;-74
2022/10/05 18:51:47;;;;;;;4.53;3.30;;;16.90;99.90;;;;;;10440817;28;20718;-75
2022/10/05 18:56:50;;;;;;;5.07;3.20;;;16.80;99.90;;;;;;10448445;28;20273;-74
2022/10/05 19:02:18;;;;;;;5.23;3.67;;;16.80;99.90;;;;;;10450180;28;20227;-75
2022/10/05 19:07:38;;;;;;;7.13;3.20;;;16.80;99.90;;;;;;10443620;28;20597;-74
2022/10/05 19:12:48;;;;;;;3.50;3.17;;;16.80;99.90;;;;;;10450177;28;20326;-75
2022/10/05 19:17:57;;;;;;;2.90;2.60;;;16.70;99.90;;;;;;10450469;28;20212;-74
2022/10/05 19:23:04;;;;;;;5.20;2.90;;;16.70;99.90;;;;;;10449513;28;20750;-74
2022/10/05 19:28:26;;;;;;;4.50;2.73;;;16.60;99.90;;;;;;10448905;28;20224;-74
2022/10/05 19:34:12;;;;;;;4.03;2.53;;;16.70;99.90;;;;;;10442472;28;20231;-74
2022/10/05 19:39:20;;;;;;;4.33;2.60;;;16.60;99.90;;;;;;10439861;28;20714;-75
2022/10/05 19:44:29;;;;;;;3.77;2.40;;;16.60;99.90;;;;;;10448481;28;20552;-74
2022/10/05 19:49:47;;;;;;;6.90;2.37;;;16.50;99.90;;;;;;10448391;28;20309;-75
2022/10/05 19:55:01;;;;;;;4.67;2.33;;;16.50;99.90;;;;;;10447940;28;20229;-73
2022/10/05 20:00:02;;;;;;;4.77;2.47;;;16.50;99.90;;;;;;10449326;28;20220;-77
2022/10/05 20:05:06;;;;;;;4.33;2.30;;;16.40;99.90;;;;;;10446001;28;20216;-76
2022/10/05 20:10:28;;;;;;;5.33;2.03;;;16.30;99.90;;;;;;10448643;28;20232;-76
2022/10/05 20:20:50;;;;;;;3.07;2.20;;;16.20;99.90;;;;;;10449202;28;20311;-77
2022/10/05 20:31:13;;;;;;;3.33;2.30;;;16.20;99.90;;;;;;10448803;28;20239;-77
2022/10/05 20:36:13;;;;;;;5.73;2.27;;;16.20;99.90;;;;;;10438862;28;20699;-76
2022/10/05 20:41:15;;;;;;;3.63;2.20;;;16.20;99.90;;;;;;10463038;28;20224;-77
2022/10/05 20:46:16;;;;;;;2.40;1.90;;;16.20;99.90;;;;;;10446243;28;20713;-77
2022/10/05 20:51:18;;;;;;;3.00;2.00;;;16.20;99.90;;;;;;10448125;28;20281;-76
2022/10/05 20:56:25;;;;;;;3.27;2.20;;;16.20;99.90;;;;;;10445953;28;20269;-77
2022/10/05 21:01:27;;;;;;;5.13;2.40;;;16.20;99.90;;;;;;10445762;28;20676;-77
2022/10/05 21:06:28;;;;;;;5.03;2.27;;;16.10;99.90;;;;;;10446577;28;20223;-76
2022/10/05 21:11:31;;;;;;;3.83;2.17;;;16.10;99.90;;;;;;10445110;28;20650;-76
2022/10/05 21:16:34;;;;;;;3.20;2.60;;;16.10;99.90;;;;;;10445161;28;20237;-75
2022/10/05 21:21:35;;;;;;;2.80;2.33;;;16.00;99.90;;;;;;10445704;28;20693;-75
2022/10/05 21:26:36;;;;;;;3.50;2.63;;;15.90;99.90;;;;;;10447695;28;20223;-74
2022/10/05 21:31:40;;;;;;;4.23;2.30;;;15.90;99.90;;;;;;10451465;28;20289;-76
2022/10/05 21:36:40;;;;;;;4.27;2.53;;;15.80;99.90;;;;;;10453737;28;20247;-77
2022/10/05 21:41:41;;;;;;;2.43;2.23;;;15.80;99.90;;;;;;10455436;28;20292;-76
2022/10/05 21:46:42;;;;;;;3.23;2.17;;;15.70;99.90;;;;;;10469883;28;20258;-77
2022/10/05 21:51:44;;;;;;;3.77;2.10;;;15.70;99.90;;;;;;10452236;28;20231;-77
2022/10/05 21:56:50;;;;;;;5.57;2.60;;;15.70;99.90;;;;;;10453408;28;20220;-77
2022/10/05 22:01:51;;;;;;;3.90;2.57;;;15.60;99.90;;;;;;10453747;28;20699;-77
2022/10/05 22:06:53;;;;;;;5.63;2.57;;;15.60;99.90;;;;;;10452921;28;20223;-74
2022/10/05 22:11:54;;;;;;;5.20;2.47;;;15.50;99.90;;;;;;10452317;28;20220;-75
2022/10/05 22:16:54;;;;;;;3.63;2.17;;;15.50;99.90;;;;;;10454229;28;20220;-74
2022/10/05 22:21:58;;;;;;;3.67;2.77;;;15.40;99.90;;;;;;10444670;28;20212;-75
2022/10/05 22:26:59;;;;;;;5.77;2.53;;;15.30;99.90;;;;;;10421744;28;20711;-75
2022/10/05 22:32:07;;;;;;;8.00;2.90;;;15.30;99.90;;;;;;10427151;28;20231;-76
2022/10/05 22:37:14;;;;;;;3.90;2.60;;;15.20;99.90;;;;;;10451333;28;20883;-76
2022/10/05 22:42:14;;;;;;;5.03;2.63;;;15.20;99.90;;;;;;10443527;28;20314;-76
2022/10/05 22:47:15;;;;;;;3.50;2.30;;;15.10;99.90;;;;;;10451097;28;20216;-75
2022/10/05 22:52:18;;;;;;;3.47;3.17;;;15.10;99.90;;;;;;10451409;28;20227;-74
2022/10/05 22:57:19;;;;;;;3.70;2.80;;;14.90;99.90;;;;;;10452365;28;20295;-75
2022/10/05 23:02:21;;;;;;;4.40;2.80;;;14.80;99.90;;;;;;10451135;28;20219;-75
2022/10/05 23:07:21;;;;;;;4.23;2.93;;;14.70;99.90;;;;;;10449168;28;20624;-75
2022/10/05 23:12:22;;;;;;;3.77;3.03;;;14.80;99.90;;;;;;10449047;28;20235;-74
2022/10/05 23:17:22;;;;;;;5.27;2.80;;;14.70;99.90;;;;;;10451216;28;20220;-74
2022/10/05 23:22:26;;;;;;;5.30;3.10;;;14.70;99.90;;;;;;10449683;28;20215;-74
2022/10/05 23:27:26;;;;;;;7.33;3.07;;;14.70;99.90;;;;;;10450315;28;20224;-74
2022/10/05 23:32:27;;;;;;;4.83;3.17;;;14.70;99.90;;;;;;10449379;28;20224;-74
2022/10/05 23:37:28;;;;;;;7.63;3.70;;;14.70;99.90;;;;;;10448701;28;20224;-74
2022/10/05 23:42:28;;;;;;;4.53;3.00;;;14.80;99.90;;;;;;10449586;28;20212;-74
2022/10/05 23:47:29;;;;;;;7.50;3.43;;;14.80;99.90;;;;;;10448930;28;20223;-74
2022/10/05 23:52:29;;;;;;;5.83;3.30;;;14.70;99.90;;;;;;10447563;28;20220;-74
2022/10/05 23:57:30;;;;;;;4.90;3.10;;;14.70;99.90;;;;;;10449660;28;20306;-74
